createdAt,value
2018-02-03T00:01:05.518Z,94508
2018-02-03T00:03:33.632Z,94495
2018-02-03T00:06:01.733Z,94491
2018-02-03T00:08:30.155Z,94503
2018-02-03T00:10:58.257Z,94500
2018-02-03T00:13:26.355Z,94496
2018-02-03T00:15:54.440Z,94489
2018-02-03T00:18:22.567Z,94491
2018-02-03T00:20:50.731Z,94490
2018-02-03T00:23:18.904Z,94498
2018-02-03T00:25:47.009Z,94490
2018-02-03T00:28:15.121Z,94486
2018-02-03T00:30:44.005Z,94489
2018-02-03T00:33:12.098Z,94485
2018-02-03T00:35:40.253Z,94478
2018-02-03T00:38:08.737Z,94484
2018-02-03T00:40:37.579Z,94483
2018-02-03T00:43:05.687Z,94482
2018-02-03T00:45:34.543Z,94471
2018-02-03T00:48:03.027Z,94472
2018-02-03T00:50:31.112Z,94479
2018-02-03T00:52:59.189Z,94480
2018-02-03T00:55:27.320Z,94486
2018-02-03T00:57:55.494Z,94482
2018-02-03T01:00:23.600Z,94479
2018-02-03T01:02:51.700Z,94482
2018-02-03T01:05:19.808Z,94474
2018-02-03T01:07:48.656Z,94480
2018-02-03T01:10:16.822Z,94477
2018-02-03T01:12:44.960Z,94486
2018-02-03T01:15:13.876Z,94478
2018-02-03T01:17:42.064Z,94477
2018-02-03T01:20:10.152Z,94474
2018-02-03T01:22:38.248Z,94475
2018-02-03T01:25:06.358Z,94473
2018-02-03T01:27:34.451Z,94478
2018-02-03T01:30:02.605Z,94477
2018-02-03T01:32:30.718Z,94473
2018-02-03T01:34:58.808Z,94474
2018-02-03T01:37:26.955Z,94474
2018-02-03T01:39:55.881Z,94476
2018-02-03T01:42:24.028Z,94465
2018-02-03T01:44:52.115Z,94481
2018-02-03T01:47:20.329Z,94475
2018-02-03T01:49:48.415Z,94472
2018-02-03T01:52:16.515Z,94475
2018-02-03T01:54:44.583Z,94483
2018-02-03T01:57:12.672Z,94470
2018-02-03T01:59:40.749Z,94454
2018-02-03T02:02:08.908Z,94460
2018-02-03T02:04:37.099Z,94464
2018-02-03T02:07:05.395Z,94457
2018-02-03T02:09:33.711Z,94446
2018-02-03T02:12:01.847Z,94449
2018-02-03T02:14:30.064Z,94446
2018-02-03T02:16:58.138Z,94440
2018-02-03T02:19:26.238Z,94441
2018-02-03T02:21:54.320Z,94437
2018-02-03T02:24:22.470Z,94434
2018-02-03T02:26:50.561Z,94423
2018-02-03T02:29:18.672Z,94420
2018-02-03T02:31:46.786Z,94422
2018-02-03T02:34:14.890Z,94421
2018-02-03T02:36:42.976Z,94422
2018-02-03T02:39:11.071Z,94420
2018-02-03T02:41:39.162Z,94413
2018-02-03T02:44:07.256Z,94415
2018-02-03T02:46:35.484Z,94415
2018-02-03T02:49:03.613Z,94422
2018-02-03T02:51:31.710Z,94423
2018-02-03T02:53:59.834Z,94424
2018-02-03T02:56:28.706Z,94427
2018-02-03T02:58:56.820Z,94416
2018-02-03T03:01:24.977Z,94423
2018-02-03T03:03:53.053Z,94414
2018-02-03T03:06:21.179Z,94406
2018-02-03T03:08:49.279Z,94411
2018-02-03T03:11:17.375Z,94405
2018-02-03T03:13:45.453Z,94411
2018-02-03T03:16:13.589Z,94404
2018-02-03T03:18:41.670Z,94403
2018-02-03T03:21:09.873Z,94398
2018-02-03T03:23:38.097Z,94399
2018-02-03T03:26:06.373Z,94401
2018-02-03T03:28:34.501Z,94403
2018-02-03T03:31:02.593Z,94403
2018-02-03T03:33:30.712Z,94395
2018-02-03T03:35:58.801Z,94401
2018-02-03T03:38:26.893Z,94392
2018-02-03T03:40:54.965Z,94388
2018-02-03T03:43:23.174Z,94387
2018-02-03T03:45:51.357Z,94388
2018-02-03T03:48:19.592Z,94388
2018-02-03T03:50:47.808Z,94387
2018-02-03T03:53:16.082Z,94389
2018-02-03T03:55:44.288Z,94392
2018-02-03T03:58:13.193Z,94389
2018-02-03T04:00:41.276Z,94389
2018-02-03T04:03:09.374Z,94379
2018-02-03T04:05:37.468Z,94381
2018-02-03T04:08:05.650Z,94387
2018-02-03T04:10:34.508Z,94375
2018-02-03T04:13:02.592Z,94383
2018-02-03T04:15:30.694Z,94371
2018-02-03T04:17:58.772Z,94376
2018-02-03T04:20:27.666Z,94365
2018-02-03T04:22:55.848Z,94366
2018-02-03T04:25:23.948Z,94355
2018-02-03T04:27:52.030Z,94355
2018-02-03T04:30:20.498Z,94368
2018-02-03T04:32:48.605Z,94360
2018-02-03T04:35:16.735Z,94359
2018-02-03T04:37:44.833Z,94357
2018-02-03T04:40:12.917Z,94348
2018-02-03T04:42:41.015Z,94347
2018-02-03T04:45:09.095Z,94345
2018-02-03T04:47:37.195Z,94343
2018-02-03T04:50:05.274Z,94344
2018-02-03T04:52:33.377Z,94339
2018-02-03T04:55:01.459Z,94343
2018-02-03T04:57:29.589Z,94343
2018-02-03T04:59:57.827Z,94343
2018-02-03T05:02:26.715Z,94341
2018-02-03T05:04:54.795Z,94333
2018-02-03T05:07:22.887Z,94339
2018-02-03T05:09:51.001Z,94340
2018-02-03T05:12:19.086Z,94332
2018-02-03T05:14:47.204Z,94329
2018-02-03T05:17:15.421Z,94339
2018-02-03T05:19:43.517Z,94349
2018-02-03T05:22:11.686Z,94352
2018-02-03T05:24:39.774Z,94355
2018-02-03T05:27:07.897Z,94348
2018-02-03T05:29:36.076Z,94349
2018-02-03T05:32:04.186Z,94342
2018-02-03T05:34:33.046Z,94348
2018-02-03T05:37:01.122Z,94346
2018-02-03T05:39:29.216Z,94344
2018-02-03T05:41:57.332Z,94354
2018-02-03T05:44:25.443Z,94355
2018-02-03T05:46:53.633Z,94341
2018-02-03T05:49:21.762Z,94341
2018-02-03T05:51:49.972Z,94346
2018-02-03T05:54:18.836Z,94346
2018-02-03T05:56:46.944Z,94352
2018-02-03T05:59:15.800Z,94348
2018-02-03T06:01:43.901Z,94342
2018-02-03T06:04:12.785Z,94348
2018-02-03T06:06:40.873Z,94344
2018-02-03T06:09:09.753Z,94345
2018-02-03T06:11:37.883Z,94348
2018-02-03T06:14:05.979Z,94345
2018-02-03T06:16:34.059Z,94348
2018-02-03T06:19:02.175Z,94356
2018-02-03T06:21:30.271Z,94350
2018-02-03T06:23:58.365Z,94355
2018-02-03T06:26:26.569Z,94345
2018-02-03T06:28:54.701Z,94349
2018-02-03T06:31:22.879Z,94343
2018-02-03T06:33:51.005Z,94349
2018-02-03T06:36:19.098Z,94338
2018-02-03T06:38:47.209Z,94332
2018-02-03T06:41:15.295Z,94328
2018-02-03T06:43:43.396Z,94326
2018-02-03T06:46:11.489Z,94320
2018-02-03T06:48:39.593Z,94319
2018-02-03T06:51:07.822Z,94325
2018-02-03T06:53:35.912Z,94316
2018-02-03T06:56:04.002Z,94310
2018-02-03T06:58:32.085Z,94311
2018-02-03T07:01:00.180Z,94312
2018-02-03T07:03:28.288Z,94316
2018-02-03T07:05:56.474Z,94319
2018-02-03T07:08:24.570Z,94323
2018-02-03T07:10:52.950Z,94323
2018-02-03T07:13:21.008Z,94333
2018-02-03T07:15:49.116Z,94340
2018-02-03T07:18:17.261Z,94347
2018-02-03T07:20:45.589Z,94355
2018-02-03T07:23:13.702Z,94349
2018-02-03T07:25:41.780Z,94351
2018-02-03T07:28:09.866Z,94351
2018-02-03T07:30:38.514Z,94349
2018-02-03T07:33:06.684Z,94364
2018-02-03T07:35:34.763Z,94365
2018-02-03T07:38:02.873Z,94359
2018-02-03T07:40:30.963Z,94352
2018-02-03T07:42:59.219Z,94355
2018-02-03T07:45:27.449Z,94360
2018-02-03T07:47:55.721Z,94362
2018-02-03T07:50:23.835Z,94365
2018-02-03T07:52:51.927Z,94368
2018-02-03T07:55:20.042Z,94371
2018-02-03T07:57:48.140Z,94372
2018-02-03T08:00:16.228Z,94365
2018-02-03T08:02:44.316Z,94360
2018-02-03T08:05:12.425Z,94366
2018-02-03T08:07:40.536Z,94363
2018-02-03T08:10:08.652Z,94367
2018-02-03T08:12:36.752Z,94362
2018-02-03T08:15:04.847Z,94359
2018-02-03T08:17:32.942Z,94354
2018-02-03T08:20:01.602Z,94359
2018-02-03T08:22:30.348Z,94352
2018-02-03T08:24:59.216Z,94355
2018-02-03T08:27:27.360Z,94358
2018-02-03T08:29:55.466Z,94355
2018-02-03T08:32:23.690Z,94355
2018-02-03T08:34:51.784Z,94348
2018-02-03T08:37:19.873Z,94348
2018-02-03T08:39:48.413Z,94350
2018-02-03T08:42:16.711Z,94349
2018-02-03T08:44:44.803Z,94353
2018-02-03T08:47:13.667Z,94343
2018-02-03T08:49:41.873Z,94343
2018-02-03T08:52:10.151Z,94341
2018-02-03T08:54:39.039Z,94349
2018-02-03T08:57:07.289Z,94348
2018-02-03T08:59:35.419Z,94351
2018-02-03T09:02:03.521Z,94348
2018-02-03T09:04:31.615Z,94347
2018-02-03T09:06:59.729Z,94347
2018-02-03T09:09:28.169Z,94335
2018-02-03T09:12:06.393Z,94333
2018-02-03T09:14:34.515Z,94333
2018-02-03T09:17:02.623Z,94333
2018-02-03T09:19:30.764Z,94330
2018-02-03T09:21:59.063Z,94345
2018-02-03T09:24:27.206Z,94330
2018-02-03T09:26:55.389Z,94343
2018-02-03T09:29:23.606Z,94330
2018-02-03T09:31:51.978Z,94337
2018-02-03T09:34:20.100Z,94337
2018-02-03T09:36:48.308Z,94340
2018-02-03T09:39:18.008Z,94343
2018-02-03T09:41:46.127Z,94345
2018-02-03T09:44:14.236Z,94341
2018-02-03T09:46:42.328Z,94347
2018-02-03T09:49:10.544Z,94345
2018-02-03T09:51:38.736Z,94337
2018-02-03T09:54:07.000Z,94344
2018-02-03T09:56:35.234Z,94352
2018-02-03T09:59:03.500Z,94344
2018-02-03T10:01:31.678Z,94347
2018-02-03T10:03:59.766Z,94352
2018-02-03T10:06:27.857Z,94344
2018-02-03T10:08:55.956Z,94346
2018-02-03T10:11:24.228Z,94344
2018-02-03T10:13:52.341Z,94341
2018-02-03T10:16:20.421Z,94334
2018-02-03T10:18:48.543Z,94341
2018-02-03T10:21:16.731Z,94334
2018-02-03T10:23:44.869Z,94330
2018-02-03T10:26:12.983Z,94329
2018-02-03T10:28:41.655Z,94314
2018-02-03T10:31:09.751Z,94320
2018-02-03T10:33:38.005Z,94311
2018-02-03T10:36:06.155Z,94311
2018-02-03T10:38:34.259Z,94321
2018-02-03T10:41:02.989Z,94314
2018-02-03T10:43:31.091Z,94308
2018-02-03T10:45:59.248Z,94311
2018-02-03T10:48:27.447Z,94309
2018-02-03T10:50:55.689Z,94300
2018-02-03T10:53:23.908Z,94304
2018-02-03T10:55:52.000Z,94302
2018-02-03T10:58:20.097Z,94296
2018-02-03T11:00:48.220Z,94299
2018-02-03T11:03:16.320Z,94305
2018-02-03T11:05:44.720Z,94304
2018-02-03T11:08:13.664Z,94282
2018-02-03T11:10:41.990Z,94291
2018-02-03T11:13:10.176Z,94299
2018-02-03T11:15:38.283Z,94294
2018-02-03T11:18:06.368Z,94292
2018-02-03T11:20:34.471Z,94291
2018-02-03T11:23:02.553Z,94285
2018-02-03T11:25:30.677Z,94284
2018-02-03T11:27:58.755Z,94282
2018-02-03T11:30:26.899Z,94283
2018-02-03T11:32:54.987Z,94281
2018-02-03T11:35:23.137Z,94278
2018-02-03T11:37:51.247Z,94290
2018-02-03T11:40:19.378Z,94284
2018-02-03T11:42:48.261Z,94281
2018-02-03T11:45:16.359Z,94281
2018-02-03T11:47:44.490Z,94281
2018-02-03T11:50:12.616Z,94278
2018-02-03T11:52:40.726Z,94280
2018-02-03T11:55:08.817Z,94282
2018-02-03T11:57:37.027Z,94280
2018-02-03T12:00:05.115Z,94276
2018-02-03T12:02:33.511Z,94280
2018-02-03T12:05:01.603Z,94284
2018-02-03T12:07:29.700Z,94281
2018-02-03T12:09:57.796Z,94279
2018-02-03T12:12:26.020Z,94287
2018-02-03T12:14:54.188Z,94284
2018-02-03T12:17:22.386Z,94279
2018-02-03T12:19:50.664Z,94282
2018-02-03T12:22:18.892Z,94286
2018-02-03T12:24:47.506Z,94273
2018-02-03T12:27:15.613Z,94280
2018-02-03T12:29:43.714Z,94278
2018-02-03T12:32:11.871Z,94267
2018-02-03T12:34:40.004Z,94266
2018-02-03T12:37:08.988Z,94263
2018-02-03T12:39:37.089Z,94268
2018-02-03T12:42:05.170Z,94266
2018-02-03T12:44:33.282Z,94264
2018-02-03T12:47:01.368Z,94264
2018-02-03T12:49:29.467Z,94256
2018-02-03T12:51:58.442Z,94251
2018-02-03T12:54:26.693Z,94258
2018-02-03T12:56:54.791Z,94258
2018-02-03T12:59:22.995Z,94259
2018-02-03T13:01:51.100Z,94253
2018-02-03T13:04:19.179Z,94252
2018-02-03T13:06:47.285Z,94262
2018-02-03T13:09:15.387Z,94254
2018-02-03T13:11:43.483Z,94256
2018-02-03T13:14:11.585Z,94250
2018-02-03T13:16:39.683Z,94252
2018-02-03T13:19:08.541Z,94253
2018-02-03T13:21:36.663Z,94250
2018-02-03T13:24:04.757Z,94246
2018-02-03T13:26:32.874Z,94251
2018-02-03T13:29:00.953Z,94242
2018-02-03T13:31:29.059Z,94245
2018-02-03T13:33:57.239Z,94241
2018-02-03T13:36:25.326Z,94243
2018-02-03T13:38:53.439Z,94244
2018-02-03T13:41:21.532Z,94241
2018-02-03T13:43:49.652Z,94242
2018-02-03T13:46:17.836Z,94242
2018-02-03T13:48:45.931Z,94244
2018-02-03T13:51:14.013Z,94235
2018-02-03T13:53:42.136Z,94246
2018-02-03T13:56:10.364Z,94241
2018-02-03T13:58:38.584Z,94240
2018-02-03T14:01:07.818Z,94236
2018-02-03T14:03:36.776Z,94235
2018-02-03T14:06:05.052Z,94233
2018-02-03T14:08:33.777Z,94239
2018-02-03T14:11:01.863Z,94234
2018-02-03T14:13:30.078Z,94234
2018-02-03T14:15:58.253Z,94226
2018-02-03T14:18:26.413Z,94232
2018-02-03T14:20:54.511Z,94223
2018-02-03T14:23:23.369Z,94229
2018-02-03T14:25:57.069Z,94226
2018-02-03T14:28:25.151Z,94226
2018-02-03T14:30:53.300Z,94227
2018-02-03T14:33:21.333Z,94219
2018-02-03T14:35:49.441Z,94223
2018-02-03T14:38:18.353Z,94222
2018-02-03T14:40:46.489Z,94227
2018-02-03T14:43:14.692Z,94219
2018-02-03T14:45:44.172Z,94222
2018-02-03T14:48:13.028Z,94224
2018-02-03T14:50:41.156Z,94212
2018-02-03T14:53:09.267Z,94227
2018-02-03T14:55:37.462Z,94218
2018-02-03T14:58:06.331Z,94217
2018-02-03T15:00:35.136Z,94218
2018-02-03T15:03:03.225Z,94224
2018-02-03T15:05:31.316Z,94220
2018-02-03T15:07:59.420Z,94225
2018-02-03T15:10:27.528Z,94232
2018-02-03T15:12:55.762Z,94232
2018-02-03T15:15:24.298Z,94226
2018-02-03T15:17:52.378Z,94226
2018-02-03T15:20:20.700Z,94221
2018-02-03T15:22:49.328Z,94224
2018-02-03T15:25:17.482Z,94222
2018-02-03T15:27:45.592Z,94227
2018-02-03T15:30:13.687Z,94228
2018-02-03T15:32:41.772Z,94240
2018-02-03T15:35:09.942Z,94242
2018-02-03T15:37:38.159Z,94237
2018-02-03T15:40:06.387Z,94235
2018-02-03T15:42:34.546Z,94236
2018-02-03T15:45:02.655Z,94248
2018-02-03T15:47:30.757Z,94238
2018-02-03T15:49:59.031Z,94250
2018-02-03T15:52:27.163Z,94247
2018-02-03T15:54:55.261Z,94250
2018-02-03T15:57:24.107Z,94243
2018-02-03T15:59:52.201Z,94252
2018-02-03T16:02:20.503Z,94253
2018-02-03T16:04:49.154Z,94250
2018-02-03T16:07:17.788Z,94250
2018-02-03T16:09:47.167Z,94250
2018-02-03T16:12:16.015Z,94241
2018-02-03T16:14:44.384Z,94241
2018-02-03T16:17:13.427Z,94257
2018-02-03T16:19:41.880Z,94258
2018-02-03T16:22:10.124Z,94249
2018-02-03T16:24:38.315Z,94261
2018-02-03T16:27:07.405Z,94257
2018-02-03T16:29:35.804Z,94271
2018-02-03T16:32:04.131Z,94256
2018-02-03T16:34:32.715Z,94263
2018-02-03T16:37:01.729Z,94263
2018-02-03T16:39:30.418Z,94274
2018-02-03T16:41:58.734Z,94270
2018-02-03T16:44:27.079Z,94277
2018-02-03T16:46:55.424Z,94279
2018-02-03T16:49:23.748Z,94280
2018-02-03T16:51:52.192Z,94276
2018-02-03T16:54:20.798Z,94286
2018-02-03T16:56:49.065Z,94284
2018-02-03T16:59:17.643Z,94283
2018-02-03T17:01:46.391Z,94287
2018-02-03T17:04:16.445Z,94284
2018-02-03T17:06:45.025Z,94290
2018-02-03T17:09:13.126Z,94284
2018-02-03T17:11:41.227Z,94291
2018-02-03T17:14:09.334Z,94301
2018-02-03T17:16:37.409Z,94303
2018-02-03T17:19:05.510Z,94308
2018-02-03T17:21:33.613Z,94313
2018-02-03T17:24:01.734Z,94325
2018-02-03T17:26:29.841Z,94320
2018-02-03T17:28:58.294Z,94341
2018-02-03T17:31:26.447Z,94338
2018-02-03T17:33:54.574Z,94345
2018-02-03T17:36:28.248Z,94350
2018-02-03T17:39:01.758Z,94361
2018-02-03T17:41:29.942Z,94362
2018-02-03T17:43:58.116Z,94368
2018-02-03T17:46:31.646Z,94367
2018-02-03T17:48:59.756Z,94368
2018-02-03T17:51:27.882Z,94363
2018-02-03T17:53:55.992Z,94368
2018-02-03T17:56:29.596Z,94373
2018-02-03T17:58:57.995Z,94366
2018-02-03T18:01:26.226Z,94372
2018-02-03T18:03:54.302Z,94366
2018-02-03T18:06:22.410Z,94373
2018-02-03T18:08:51.292Z,94373
2018-02-03T18:11:19.402Z,94378
2018-02-03T18:13:47.507Z,94380
2018-02-03T18:16:15.601Z,94366
2018-02-03T18:18:43.708Z,94374
2018-02-03T18:21:11.826Z,94369
2018-02-03T18:23:40.093Z,94371
2018-02-03T18:26:08.216Z,94377
2018-02-03T18:28:37.108Z,94372
2018-02-03T18:31:05.179Z,94380
2018-02-03T18:33:33.677Z,94382
2018-02-03T18:36:01.805Z,94367
2018-02-03T18:38:29.885Z,94374
2018-02-03T18:40:57.982Z,94382
2018-02-03T18:43:26.093Z,94386
2018-02-03T18:45:54.198Z,94381
2018-02-03T18:48:22.279Z,94382
2018-02-03T18:50:51.184Z,94381
2018-02-03T18:53:19.343Z,94379
2018-02-03T18:55:47.463Z,94376
2018-02-03T18:58:15.606Z,94384
2018-02-03T19:00:43.693Z,94386
2018-02-03T19:03:11.805Z,94395
2018-02-03T19:05:39.899Z,94399
2018-02-03T19:08:08.113Z,94401
2018-02-03T19:10:36.212Z,94390
2018-02-03T19:13:04.313Z,94391
2018-02-03T19:15:32.412Z,94396
2018-02-03T19:18:00.524Z,94402
2018-02-03T19:20:28.658Z,94401
2018-02-03T19:22:57.518Z,94407
2018-02-03T19:25:25.596Z,94394
2018-02-03T19:27:54.460Z,94400
2018-02-03T19:30:22.668Z,94408
2018-02-03T19:32:51.230Z,94415
2018-02-03T19:35:19.368Z,94403
2018-02-03T19:37:47.512Z,94403
2018-02-03T19:40:15.721Z,94408
2018-02-03T19:42:43.951Z,94406
2018-02-03T19:45:12.792Z,94404
2018-02-03T19:47:40.950Z,94411
2018-02-03T19:50:09.077Z,94403
2018-02-03T19:52:37.161Z,94410
2018-02-03T19:55:05.273Z,94414
2018-02-03T19:57:33.411Z,94408
2018-02-03T20:00:01.559Z,94419
2018-02-03T20:02:29.640Z,94419
2018-02-03T20:04:58.345Z,94418
2018-02-03T20:07:26.893Z,94418
2018-02-03T20:09:55.011Z,94426
2018-02-03T20:12:23.105Z,94429
2018-02-03T20:14:51.226Z,94425
2018-02-03T20:17:19.369Z,94428
2018-02-03T20:19:47.719Z,94434
2018-02-03T20:22:15.808Z,94436
2018-02-03T20:24:43.900Z,94426
2018-02-03T20:27:12.036Z,94437
2018-02-03T20:29:40.162Z,94449
2018-02-03T20:32:08.291Z,94429
2018-02-03T20:34:36.394Z,94442
2018-02-03T20:37:04.530Z,94436
2018-02-03T20:39:32.738Z,94444
2018-02-03T20:42:00.924Z,94437
2018-02-03T20:44:29.111Z,94444
2018-02-03T20:46:57.284Z,94454
2018-02-03T20:49:25.372Z,94459
2018-02-03T20:51:53.480Z,94449
2018-02-03T20:54:21.560Z,94456
2018-02-03T20:56:49.688Z,94458
2018-02-03T20:59:17.796Z,94454
2018-02-03T21:01:45.884Z,94452
2018-02-03T21:04:14.019Z,94455
2018-02-03T21:06:42.125Z,94453
2018-02-03T21:09:10.231Z,94464
2018-02-03T21:11:38.323Z,94459
2018-02-03T21:14:06.443Z,94463
2018-02-03T21:16:34.539Z,94459
2018-02-03T21:19:02.649Z,94468
2018-02-03T21:21:30.725Z,94466
2018-02-03T21:23:58.885Z,94469
2018-02-03T21:26:26.969Z,94475
2018-02-03T21:28:55.069Z,94470
2018-02-03T21:31:23.155Z,94479
2018-02-03T21:33:51.285Z,94471
2018-02-03T21:36:19.585Z,94481
2018-02-03T21:38:47.680Z,94480
2018-02-03T21:41:15.893Z,94487
2018-02-03T21:43:44.039Z,94484
2018-02-03T21:46:12.137Z,94485
2018-02-03T21:48:40.790Z,94485
2018-02-03T21:51:08.889Z,94487
2018-02-03T21:53:37.109Z,94478
2018-02-03T21:56:05.234Z,94503
2018-02-03T21:58:33.541Z,94487
2018-02-03T22:01:01.652Z,94494
2018-02-03T22:03:29.822Z,94496
2018-02-03T22:05:57.906Z,94488
2018-02-03T22:08:26.008Z,94502
2018-02-03T22:10:54.176Z,94500
2018-02-03T22:13:22.278Z,94499
2018-02-03T22:15:50.515Z,94499
2018-02-03T22:18:19.476Z,94500
2018-02-03T22:20:47.566Z,94505
2018-02-03T22:23:15.667Z,94506
2018-02-03T22:25:43.750Z,94502
2018-02-03T22:28:11.828Z,94502
2018-02-03T22:30:39.947Z,94511
2018-02-03T22:33:08.055Z,94512
2018-02-03T22:35:36.177Z,94508
2018-02-03T22:38:04.341Z,94509
2018-02-03T22:40:32.433Z,94517
2018-02-03T22:43:00.517Z,94515
2018-02-03T22:45:28.643Z,94519
2018-02-03T22:47:56.715Z,94513
2018-02-03T22:50:24.865Z,94518
2018-02-03T22:52:53.079Z,94522
2018-02-03T22:55:21.935Z,94526
2018-02-03T22:57:50.041Z,94521
2018-02-03T23:00:18.127Z,94531
2018-02-03T23:02:51.735Z,94526
2018-02-03T23:05:19.827Z,94528
2018-02-03T23:07:47.913Z,94526
2018-02-03T23:10:15.997Z,94519
2018-02-03T23:12:44.140Z,94527
2018-02-03T23:15:13.056Z,94534
2018-02-03T23:17:41.169Z,94530
2018-02-03T23:20:09.262Z,94533
2018-02-03T23:22:37.372Z,94525
2018-02-03T23:25:05.483Z,94527
2018-02-03T23:27:33.592Z,94545
2018-02-03T23:30:02.473Z,94548
2018-02-03T23:32:30.562Z,94551
2018-02-03T23:34:58.748Z,94533
2018-02-03T23:37:26.842Z,94539
2018-02-03T23:39:54.946Z,94548
2018-02-03T23:42:23.074Z,94546
2018-02-03T23:44:51.136Z,94557
2018-02-03T23:47:19.297Z,94555
2018-02-03T23:49:47.402Z,94548
2018-02-03T23:52:15.493Z,94552
2018-02-03T23:54:44.220Z,94555
2018-02-03T23:57:12.406Z,94556
2018-02-03T23:59:40.681Z,94567
